Time,TemperatureF,DewpointF,PressureIn,WindDirection,WindDirectionDegrees,WindSpeedMPH,WindSpeedGustMPH,Humidity,HourlyPrecipIn,Conditions,Clouds,dailyrainin,SoftwareType,DateUTC
2013-09-24 00:01:00,58.9,31.3,29.70,WNW,283,0.0,6.0,35,0.00,,---,0.00,VWS V14.00,2013-09-24 06:01:00,
2013-09-24 00:06:00,58.9,30.6,29.70,NNW,336,0.0,0.0,34,0.00,,---,0.00,VWS V14.00,2013-09-24 06:06:00,
2013-09-24 00:12:00,58.7,31.1,29.70,WNW,292,6.0,6.0,35,0.00,,---,0.00,VWS V14.00,2013-09-24 06:12:00,
2013-09-24 00:17:00,58.7,30.4,29.70,WNW,296,0.0,0.0,34,0.00,,---,0.00,VWS V14.00,2013-09-24 06:17:00,
2013-09-24 00:22:00,58.5,30.2,29.70,WNW,302,0.0,0.0,34,0.00,,---,0.00,VWS V14.00,2013-09-24 06:22:00,
2013-09-24 00:27:00,58.7,30.4,29.70,WNW,300,0.0,0.0,34,0.00,,---,0.00,VWS V14.00,2013-09-24 06:27:00,
2013-09-24 00:32:00,58.3,30.1,29.70,NNE,12,0.0,0.0,34,0.00,,---,0.00,VWS V14.00,2013-09-24 06:32:00,
2013-09-24 00:37:00,58.0,29.8,29.70,North,11,0.0,0.0,34,0.00,,---,0.00,VWS V14.00,2013-09-24 06:37:00,
2013-09-24 00:42:00,58.2,30.7,29.70,North,11,0.0,0.0,35,0.00,,---,0.00,VWS V14.00,2013-09-24 06:42:00,
2013-09-24 00:47:00,58.2,30.0,29.70,SW,222,0.0,4.0,34,0.00,,---,0.00,VWS V14.00,2013-09-24 06:47:00,
2013-09-24 00:52:00,58.7,29.7,29.70,SW,224,0.0,4.0,33,0.00,,---,0.00,VWS V14.00,2013-09-24 06:52:00,
2013-09-24 00:57:00,58.7,29.7,29.70,West,261,0.0,0.0,33,0.00,,---,0.00,VWS V14.00,2013-09-24 06:57:00,
2013-09-24 01:02:00,58.8,29.8,29.70,SW,217,0.0,0.0,33,0.00,,---,0.00,VWS V14.00,2013-09-24 07:02:00,
2013-09-24 01:07:00,59.0,30.0,29.70,WSW,240,0.0,8.0,33,0.00,,---,0.00,VWS V14.00,2013-09-24 07:07:00,
2013-09-24 01:13:00,59.0,29.2,29.69,WNW,298,0.0,8.0,32,0.00,,---,0.00,VWS V14.00,2013-09-24 07:13:00,
2013-09-24 01:18:00,59.3,29.5,29.70,NE,42,0.0,9.0,32,0.00,,---,0.00,VWS V14.00,2013-09-24 07:18:00,
2013-09-24 01:23:00,59.6,29.0,29.70,NNW,338,0.0,9.0,31,0.00,,---,0.00,VWS V14.00,2013-09-24 07:23:00,
2013-09-24 01:28:00,59.2,30.9,29.70,North,5,5.0,8.0,34,0.00,,---,0.00,VWS V14.00,2013-09-24 07:28:00,
2013-09-24 01:33:00,58.9,29.1,29.70,NNE,29,0.0,9.0,32,0.00,,---,0.00,VWS V14.00,2013-09-24 07:33:00,
2013-09-24 01:38:00,59.0,28.4,29.70,NNW,330,3.0,6.0,31,0.00,,---,0.00,VWS V14.00,2013-09-24 07:38:00,
2013-09-24 01:43:00,59.2,28.6,29.71,WNW,287,0.0,6.0,31,0.00,,---,0.00,VWS V14.00,2013-09-24 07:43:00,
2013-09-24 01:48:00,59.2,29.4,29.70,WNW,284,3.0,3.0,32,0.00,,---,0.00,VWS V14.00,2013-09-24 07:48:00,
2013-09-24 01:53:00,58.9,29.1,29.71,WNW,286,0.0,4.0,32,0.00,,---,0.00,VWS V14.00,2013-09-24 07:53:00,
2013-09-24 01:58:00,58.8,29.0,29.71,WNW,286,0.0,0.0,32,0.00,,---,0.00,VWS V14.00,2013-09-24 07:58:00,
2013-09-24 02:03:00,58.7,28.9,29.71,WNW,286,0.0,0.0,32,0.00,,---,0.00,VWS V14.00,2013-09-24 08:03:00,
2013-09-24 02:09:00,59.0,30.7,29.71,WNW,296,0.0,1.0,34,0.00,,---,0.00,VWS V14.00,2013-09-24 08:09:00,
2013-09-24 02:14:00,57.9,30.4,29.71,NW,308,0.0,1.0,35,0.00,,---,0.00,VWS V14.00,2013-09-24 08:14:00,
2013-09-24 02:19:00,57.1,29.0,29.71,WNW,302,0.0,0.0,34,0.00,,---,0.00,VWS V14.00,2013-09-24 08:19:00,
2013-09-24 02:24:00,57.2,29.8,29.71,NW,309,0.0,0.0,35,0.00,,---,0.00,VWS V14.00,2013-09-24 08:24:00,
2013-09-24 02:29:00,57.0,30.3,29.71,NNW,329,0.0,0.0,36,0.00,,---,0.00,VWS V14.00,2013-09-24 08:29:00,
2013-09-24 02:34:00,55.9,32.0,29.71,NNE,27,0.0,3.0,40,0.00,,---,0.00,VWS V14.00,2013-09-24 08:34:00,
2013-09-24 02:39:00,54.1,32.7,29.71,NNE,26,4.0,7.0,44,0.00,,---,0.00,VWS V14.00,2013-09-24 08:39:00,
2013-09-24 02:44:00,52.4,32.8,29.71,North,355,2.0,7.0,47,0.00,,---,0.00,VWS V14.00,2013-09-24 08:44:00,
2013-09-24 02:49:00,51.8,32.8,29.71,North,355,0.0,0.0,48,0.00,,---,0.00,VWS V14.00,2013-09-24 08:49:00,
2013-09-24 02:54:00,52.2,31.5,29.71,NW,320,0.0,5.0,45,0.00,,---,0.00,VWS V14.00,2013-09-24 08:54:00,
2013-09-24 02:59:00,52.4,33.3,29.71,North,355,0.0,0.0,48,0.00,,---,0.00,VWS V14.00,2013-09-24 08:59:00,
2013-09-24 03:04:00,51.0,33.0,29.71,NNW,346,0.0,0.0,50,0.00,,---,0.00,VWS V14.00,2013-09-24 09:04:00,
2013-09-24 03:09:00,50.5,33.1,29.71,NNW,346,0.0,0.0,51,0.00,,---,0.00,VWS V14.00,2013-09-24 09:09:00,
2013-09-24 03:14:00,50.8,32.8,29.71,North,355,0.0,0.0,50,0.00,,---,0.00,VWS V14.00,2013-09-24 09:14:00,
2013-09-24 03:19:00,50.8,32.8,29.71,North,355,0.0,2.0,50,0.00,,---,0.00,VWS V14.00,2013-09-24 09:19:00,
2013-09-24 03:24:00,51.3,32.8,29.71,NNW,342,0.0,0.0,49,0.00,,---,0.00,VWS V14.00,2013-09-24 09:24:00,
2013-09-24 03:30:00,51.1,34.1,29.71,NNW,328,5.0,5.0,52,0.00,,---,0.00,VWS V14.00,2013-09-24 09:30:00,
2013-09-24 03:35:00,51.2,34.2,29.71,NNW,334,0.0,0.0,52,0.00,,---,0.00,VWS V14.00,2013-09-24 09:35:00,
2013-09-24 03:40:00,50.5,33.5,29.72,NNW,346,0.0,0.0,52,0.00,,---,0.00,VWS V14.00,2013-09-24 09:40:00,
2013-09-24 03:45:00,50.5,34.0,29.72,North,355,0.0,0.0,53,0.00,,---,0.00,VWS V14.00,2013-09-24 09:45:00,
2013-09-24 03:50:00,50.5,34.0,29.72,North,350,0.0,0.0,53,0.00,,---,0.00,VWS V14.00,2013-09-24 09:50:00,
2013-09-24 03:55:00,50.6,35.5,29.72,North,355,4.0,5.0,56,0.00,,---,0.00,VWS V14.00,2013-09-24 09:55:00,
2013-09-24 04:00:00,50.6,33.6,29.71,NNW,328,0.0,5.0,52,0.00,,---,0.00,VWS V14.00,2013-09-24 10:00:00,
2013-09-24 04:05:00,51.5,35.0,29.72,NNW,344,0.0,0.0,53,0.00,,---,0.00,VWS V14.00,2013-09-24 10:05:00,
2013-09-24 04:10:00,50.2,35.1,29.72,NNW,344,0.0,0.0,56,0.00,,---,0.00,VWS V14.00,2013-09-24 10:10:00,
2013-09-24 04:15:00,49.5,33.6,29.72,NNW,342,0.0,0.0,54,0.00,,---,0.00,VWS V14.00,2013-09-24 10:15:00,
2013-09-24 04:20:00,50.3,34.3,29.72,North,360,0.0,4.0,54,0.00,,---,0.00,VWS V14.00,2013-09-24 10:20:00,
2013-09-24 04:25:00,50.6,34.1,29.72,North,360,0.0,0.0,53,0.00,,---,0.00,VWS V14.00,2013-09-24 10:25:00,
2013-09-24 04:30:00,50.5,34.5,29.72,North,350,4.0,4.0,54,0.00,,---,0.00,VWS V14.00,2013-09-24 10:30:00,
2013-09-24 04:35:00,50.3,34.8,29.72,North,351,0.0,0.0,55,0.00,,---,0.00,VWS V14.00,2013-09-24 10:35:00,
2013-09-24 04:40:00,49.5,34.0,29.72,NNW,347,0.0,0.0,55,0.00,,---,0.00,VWS V14.00,2013-09-24 10:40:00,
2013-09-24 04:45:00,48.9,33.9,29.73,NNW,346,0.0,0.0,56,0.00,,---,0.00,VWS V14.00,2013-09-24 10:45:00,
2013-09-24 04:50:00,49.6,35.5,29.73,North,349,0.0,0.0,58,0.00,,---,0.00,VWS V14.00,2013-09-24 10:50:00,
2013-09-24 04:55:00,49.2,33.7,29.73,NW,304,6.0,7.0,55,0.00,,---,0.00,VWS V14.00,2013-09-24 10:55:00,
2013-09-24 05:00:00,50.2,33.7,29.73,WNW,302,1.0,8.0,53,0.00,,---,0.00,VWS V14.00,2013-09-24 11:00:00,
2013-09-24 05:05:00,50.5,34.0,29.73,NNW,334,0.0,0.0,53,0.00,,---,0.00,VWS V14.00,2013-09-24 11:05:00,
2013-09-24 05:10:00,49.6,33.7,29.73,North,351,0.0,0.0,54,0.00,,---,0.00,VWS V14.00,2013-09-24 11:10:00,
2013-09-24 05:15:00,49.6,33.7,29.73,NW,315,6.0,7.0,54,0.00,,---,0.00,VWS V14.00,2013-09-24 11:15:00,
2013-09-24 05:21:00,49.9,33.9,29.73,NW,309,6.0,7.0,54,0.00,,---,0.00,VWS V14.00,2013-09-24 11:21:00,
2013-09-24 05:26:00,49.4,33.5,29.74,NW,323,4.0,7.0,54,0.00,,---,0.00,VWS V14.00,2013-09-24 11:26:00,
2013-09-24 05:31:00,49.6,33.7,29.74,WNW,290,6.0,7.0,54,0.00,,---,0.00,VWS V14.00,2013-09-24 11:31:00,
2013-09-24 05:36:00,50.0,34.0,29.74,WNW,291,8.0,8.0,54,0.00,,---,0.00,VWS V14.00,2013-09-24 11:36:00,
2013-09-24 05:41:00,49.6,34.1,29.74,NW,319,5.0,9.0,55,0.00,,---,0.00,VWS V14.00,2013-09-24 11:41:00,
2013-09-24 05:46:00,49.5,34.0,29.74,NNW,329,5.0,6.0,55,0.00,,---,0.00,VWS V14.00,2013-09-24 11:46:00,
2013-09-24 05:51:00,50.0,33.6,29.74,NW,325,7.0,9.0,53,0.00,,---,0.00,VWS V14.00,2013-09-24 11:51:00,
2013-09-24 05:56:00,50.0,33.1,29.74,NW,307,10.0,11.0,52,0.00,,---,0.00,VWS V14.00,2013-09-24 11:56:00,
2013-09-24 06:01:00,50.6,32.7,29.74,NW,313,9.0,12.0,50,0.00,,---,0.00,VWS V14.00,2013-09-24 12:01:00,
2013-09-24 06:06:00,51.0,32.5,29.75,WNW,302,9.0,11.0,49,0.00,,---,0.00,VWS V14.00,2013-09-24 12:06:00,
2013-09-24 06:11:00,51.4,33.4,29.75,North,355,0.0,11.0,50,0.00,,---,0.00,VWS V14.00,2013-09-24 12:11:00,
2013-09-24 06:16:00,50.7,32.8,29.75,NW,311,7.0,10.0,50,0.00,,---,0.00,VWS V14.00,2013-09-24 12:16:00,
2013-09-24 06:21:00,50.7,33.2,29.75,North,360,0.0,10.0,51,0.00,,---,0.00,VWS V14.00,2013-09-24 12:21:00,
2013-09-24 06:26:00,49.9,32.5,29.75,North,360,0.0,0.0,51,0.00,,---,0.00,VWS V14.00,2013-09-24 12:26:00,
2013-09-24 06:31:00,49.6,31.7,29.75,WNW,302,6.0,6.0,50,0.00,,---,0.00,VWS V14.00,2013-09-24 12:31:00,
2013-09-24 06:37:00,50.5,32.1,29.75,NW,317,7.0,10.0,49,0.00,,---,0.00,VWS V14.00,2013-09-24 12:37:00,
2013-09-24 06:42:00,51.0,32.0,29.76,WNW,300,7.0,10.0,48,0.00,,---,0.00,VWS V14.00,2013-09-24 12:42:00,
2013-09-24 06:47:00,50.8,31.8,29.76,WNW,297,6.0,10.0,48,0.00,,---,0.00,VWS V14.00,2013-09-24 12:47:00,
2013-09-24 06:52:00,50.9,31.9,29.76,WNW,300,8.0,10.0,48,0.00,,---,0.00,VWS V14.00,2013-09-24 12:52:00,
2013-09-24 06:57:00,51.2,31.7,29.76,WNW,302,5.0,9.0,47,0.00,,---,0.00,VWS V14.00,2013-09-24 12:57:00,
2013-09-24 07:02:00,51.4,32.4,29.76,NNW,335,0.0,9.0,48,0.00,,---,0.00,VWS V14.00,2013-09-24 13:02:00,
2013-09-24 07:07:00,51.5,33.0,29.76,NNW,341,0.0,0.0,49,0.00,,---,0.00,VWS V14.00,2013-09-24 13:07:00,
2013-09-24 07:12:00,50.7,32.8,29.76,North,360,1.0,6.0,50,0.00,,---,0.00,VWS V14.00,2013-09-24 13:12:00,
2013-09-24 07:17:00,50.4,33.0,29.76,North,5,0.0,0.0,51,0.00,,---,0.00,VWS V14.00,2013-09-24 13:17:00,
2013-09-24 07:22:00,50.4,33.0,29.77,NW,313,7.0,9.0,51,0.00,,---,0.00,VWS V14.00,2013-09-24 13:22:00,
2013-09-24 07:27:00,52.2,33.1,29.77,WNW,296,4.0,9.0,48,0.00,,---,0.00,VWS V14.00,2013-09-24 13:27:00,
2013-09-24 07:32:00,53.3,32.5,29.77,WNW,288,8.0,10.0,45,0.00,,---,0.00,VWS V14.00,2013-09-24 13:32:00,
2013-09-24 07:37:00,53.7,32.9,29.77,WNW,286,8.0,10.0,45,0.00,,---,0.00,VWS V14.00,2013-09-24 13:37:00,
2013-09-24 07:42:00,54.2,32.8,29.77,NW,307,8.0,10.0,44,0.00,,---,0.00,VWS V14.00,2013-09-24 13:42:00,
2013-09-24 07:47:00,54.7,32.7,29.77,WNW,286,7.0,10.0,43,0.00,,---,0.00,VWS V14.00,2013-09-24 13:47:00,
2013-09-24 07:52:00,55.2,31.9,29.77,WNW,292,7.0,10.0,41,0.00,,---,0.00,VWS V14.00,2013-09-24 13:52:00,
2013-09-24 07:58:00,55.7,32.4,29.77,WNW,298,8.0,9.0,41,0.00,,---,0.00,VWS V14.00,2013-09-24 13:58:00,
2013-09-24 08:03:00,56.4,33.0,29.77,WNW,297,3.0,9.0,41,0.00,,---,0.00,VWS V14.00,2013-09-24 14:03:00,
2013-09-24 08:08:00,57.1,33.0,29.77,WNW,292,1.0,4.0,40,0.00,,---,0.00,VWS V14.00,2013-09-24 14:08:00,
2013-09-24 08:13:00,57.8,33.0,29.77,WNW,300,1.0,4.0,39,0.00,,---,0.00,VWS V14.00,2013-09-24 14:13:00,
2013-09-24 08:18:00,58.4,34.8,29.77,NNE,32,0.0,3.0,41,0.00,,---,0.00,VWS V14.00,2013-09-24 14:18:00,
2013-09-24 08:23:00,58.9,34.6,29.77,NNE,32,0.0,3.0,40,0.00,,---,0.00,VWS V14.00,2013-09-24 14:23:00,
2013-09-24 08:28:00,59.1,36.0,29.77,NNE,32,0.0,0.0,42,0.00,,---,0.00,VWS V14.00,2013-09-24 14:28:00,
2013-09-24 08:33:00,59.5,38.7,29.77,NE,50,0.0,0.0,46,0.00,,---,0.00,VWS V14.00,2013-09-24 14:33:00,
2013-09-24 08:38:00,59.0,38.3,29.78,ENE,65,0.0,0.0,46,0.00,,---,0.00,VWS V14.00,2013-09-24 14:38:00,
2013-09-24 08:43:00,58.7,37.4,29.78,ENE,66,0.0,0.0,45,0.00,,---,0.00,VWS V14.00,2013-09-24 14:43:00,
2013-09-24 08:48:00,58.8,37.5,29.78,ENE,66,0.0,0.0,45,0.00,,---,0.00,VWS V14.00,2013-09-24 14:48:00,
2013-09-24 08:53:00,59.2,37.9,29.78,ENE,66,0.0,0.0,45,0.00,,---,0.00,VWS V14.00,2013-09-24 14:53:00,
2013-09-24 08:59:00,59.3,40.2,29.78,ESE,104,0.0,2.0,49,0.00,,---,0.00,VWS V14.00,2013-09-24 14:59:00,
2013-09-24 09:04:00,59.0,40.4,29.78,ESE,117,0.0,2.0,50,0.00,,---,0.00,VWS V14.00,2013-09-24 15:04:00,
2013-09-24 09:32:00,59.9,41.8,29.78,ENE,57,3.0,5.0,51,0.00,,---,0.00,VWS V14.00,2013-09-24 15:32:00,
2013-09-24 09:37:00,59.5,41.4,29.78,NE,56,0.0,3.0,51,0.00,,---,0.00,VWS V14.00,2013-09-24 15:37:00,
2013-09-24 09:42:00,59.4,40.8,29.78,NE,53,0.0,3.0,50,0.00,,---,0.00,VWS V14.00,2013-09-24 15:42:00,
2013-09-24 09:47:00,59.5,40.9,29.78,ENE,59,0.0,4.0,50,0.00,,---,0.00,VWS V14.00,2013-09-24 15:47:00,
2013-09-24 09:52:00,59.9,40.2,29.78,NE,42,5.0,6.0,48,0.00,,---,0.00,VWS V14.00,2013-09-24 15:52:00,
2013-09-24 09:57:00,60.4,40.6,29.78,NE,46,7.0,7.0,48,0.00,,---,0.00,VWS V14.00,2013-09-24 15:57:00,
2013-09-24 10:02:00,60.5,41.3,29.78,NE,34,6.0,8.0,49,0.00,,---,0.00,VWS V14.00,2013-09-24 16:02:00,
2013-09-24 10:07:00,60.3,42.6,29.78,NE,39,5.0,8.0,52,0.00,,---,0.00,VWS V14.00,2013-09-24 16:07:00,
2013-09-24 10:12:00,60.3,42.6,29.78,NE,43,5.0,8.0,52,0.00,,---,0.00,VWS V14.00,2013-09-24 16:12:00,
2013-09-24 10:17:00,60.2,43.5,29.78,NE,46,4.0,7.0,54,0.00,,---,0.00,VWS V14.00,2013-09-24 16:17:00,
2013-09-24 10:22:00,60.4,44.7,29.78,ENE,71,1.0,7.0,56,0.00,,---,0.00,VWS V14.00,2013-09-24 16:22:00,
2013-09-24 10:27:00,60.3,42.6,29.78,NNE,33,4.0,7.0,52,0.00,,---,0.00,VWS V14.00,2013-09-24 16:27:00,
2013-09-24 10:32:00,60.5,44.7,29.78,ENE,62,1.0,7.0,56,0.00,,---,0.00,VWS V14.00,2013-09-24 16:32:00,
2013-09-24 10:37:00,60.5,43.8,29.78,ENE,65,4.0,7.0,54,0.00,,---,0.00,VWS V14.00,2013-09-24 16:37:00,
2013-09-24 10:42:00,60.3,44.6,29.78,ENE,59,4.0,7.0,56,0.00,,---,0.00,VWS V14.00,2013-09-24 16:42:00,
2013-09-24 10:47:00,60.7,45.8,29.78,NE,43,5.0,6.0,58,0.00,,---,0.00,VWS V14.00,2013-09-24 16:47:00,
2013-09-24 10:53:00,60.8,44.1,29.78,ENE,59,0.0,7.0,54,0.00,,---,0.00,VWS V14.00,2013-09-24 16:53:00,
2013-09-24 10:58:00,60.9,42.2,29.77,ESE,119,0.0,5.0,50,0.00,,---,0.00,VWS V14.00,2013-09-24 16:58:00,
2013-09-24 11:03:00,61.1,44.3,29.78,ESE,122,0.0,5.0,54,0.00,,---,0.00,VWS V14.00,2013-09-24 17:03:00,
2013-09-24 11:08:00,61.3,44.0,29.77,ESE,121,0.0,6.0,53,0.00,,---,0.00,VWS V14.00,2013-09-24 17:08:00,
2013-09-24 11:13:00,61.3,45.0,29.77,East,85,0.0,6.0,55,0.00,,---,0.00,VWS V14.00,2013-09-24 17:13:00,
2013-09-24 11:18:00,61.4,43.1,29.77,ENE,70,0.0,5.0,51,0.00,,---,0.00,VWS V14.00,2013-09-24 17:18:00,
2013-09-24 11:23:00,61.8,43.0,29.77,SE,140,5.0,5.0,50,0.00,,---,0.00,VWS V14.00,2013-09-24 17:23:00,
2013-09-24 11:28:00,61.7,41.3,29.77,SE,141,0.0,2.0,47,0.00,,---,0.00,VWS V14.00,2013-09-24 17:28:00,
2013-09-24 11:33:00,61.9,43.6,29.76,ESE,119,1.0,6.0,51,0.00,,---,0.00,VWS V14.00,2013-09-24 17:33:00,
2013-09-24 11:38:00,62.1,40.5,29.76,SE,130,0.0,6.0,45,0.00,,---,0.00,VWS V14.00,2013-09-24 17:38:00,
2013-09-24 11:43:00,62.2,41.7,29.76,ESE,111,0.0,6.0,47,0.00,,---,0.00,VWS V14.00,2013-09-24 17:43:00,
2013-09-24 11:48:00,62.5,40.9,29.76,SE,140,0.0,5.0,45,0.00,,---,0.00,VWS V14.00,2013-09-24 17:48:00,
2013-09-24 11:53:00,62.8,42.3,29.76,SE,133,0.0,7.0,47,0.00,,---,0.00,VWS V14.00,2013-09-24 17:53:00,
2013-09-24 11:58:00,62.7,43.3,29.75,SE,128,5.0,8.0,49,0.00,,---,0.00,VWS V14.00,2013-09-24 17:58:00,
2013-09-24 12:03:00,62.3,42.4,29.75,SSE,155,0.0,8.0,48,0.00,,---,0.00,VWS V14.00,2013-09-24 18:03:00,
2013-09-24 12:08:00,63.1,44.2,29.75,ESE,111,0.0,7.0,50,0.00,,---,0.00,VWS V14.00,2013-09-24 18:08:00,
2013-09-24 12:13:00,63.5,45.1,29.75,ESE,119,0.0,7.0,51,0.00,,---,0.00,VWS V14.00,2013-09-24 18:13:00,
2013-09-24 12:18:00,63.8,45.3,29.74,SE,128,0.0,0.0,51,0.00,,---,0.00,VWS V14.00,2013-09-24 18:18:00,
2013-09-24 12:24:00,64.5,46.0,29.74,SE,137,7.0,8.0,51,0.00,,---,0.00,VWS V14.00,2013-09-24 18:24:00,
2013-09-24 12:29:00,64.3,40.1,29.74,SE,146,0.0,7.0,41,0.00,,---,0.00,VWS V14.00,2013-09-24 18:29:00,
2013-09-24 12:34:00,64.5,40.9,29.74,South,180,0.0,9.0,42,0.00,,---,0.00,VWS V14.00,2013-09-24 18:34:00,
2013-09-24 12:39:00,64.5,40.3,29.74,SE,138,6.0,12.0,41,0.00,,---,0.00,VWS V14.00,2013-09-24 18:39:00,
2013-09-24 12:44:00,64.2,40.7,29.74,SE,142,9.0,12.0,42,0.00,,---,0.00,VWS V14.00,2013-09-24 18:44:00,
2013-09-24 12:49:00,63.6,41.3,29.73,SE,141,0.0,9.0,44,0.00,,---,0.00,VWS V14.00,2013-09-24 18:49:00,
2013-09-24 12:54:00,63.7,40.2,29.73,South,169,0.0,11.0,42,0.00,,---,0.00,VWS V14.00,2013-09-24 18:54:00,
2013-09-24 12:59:00,64.2,40.0,29.73,SSE,163,7.0,11.0,41,0.00,,---,0.00,VWS V14.00,2013-09-24 18:59:00,
2013-09-24 13:04:00,64.3,40.1,29.72,South,182,0.0,11.0,41,0.00,,---,0.00,VWS V14.00,2013-09-24 19:04:00,
2013-09-24 13:09:00,64.4,41.4,29.72,SSE,155,7.0,11.0,43,0.00,,---,0.00,VWS V14.00,2013-09-24 19:09:00,
2013-09-24 13:14:00,64.7,41.7,29.72,South,176,10.0,12.0,43,0.00,,---,0.00,VWS V14.00,2013-09-24 19:14:00,
2013-09-24 13:19:00,64.9,40.0,29.72,SSE,155,4.0,12.0,40,0.00,,---,0.00,VWS V14.00,2013-09-24 19:19:00,
2013-09-24 13:24:00,65.5,41.2,29.71,ESE,113,7.0,7.0,41,0.00,,---,0.00,VWS V14.00,2013-09-24 19:24:00,
2013-09-24 13:29:00,65.6,41.3,29.71,SE,131,7.0,11.0,41,0.00,,---,0.00,VWS V14.00,2013-09-24 19:29:00,
2013-09-24 13:34:00,65.4,41.1,29.70,SSE,167,6.0,8.0,41,0.00,,---,0.00,VWS V14.00,2013-09-24 19:34:00,
2013-09-24 13:40:00,65.6,39.3,29.70,SE,138,6.0,12.0,38,0.00,,---,0.00,VWS V14.00,2013-09-24 19:40:00,
2013-09-24 13:45:00,66.0,40.4,29.70,SE,143,11.0,12.0,39,0.00,,---,0.00,VWS V14.00,2013-09-24 19:45:00,
2013-09-24 13:50:00,65.7,41.4,29.69,SSE,159,7.0,12.0,41,0.00,,---,0.00,VWS V14.00,2013-09-24 19:50:00,
2013-09-24 13:55:00,65.7,40.1,29.69,SSE,160,11.0,11.0,39,0.00,,---,0.00,VWS V14.00,2013-09-24 19:55:00,
2013-09-24 14:00:00,66.2,39.9,29.69,South,171,7.0,11.0,38,0.00,,---,0.00,VWS V14.00,2013-09-24 20:00:00,
2013-09-24 14:05:00,66.7,41.0,29.68,SE,136,9.0,12.0,39,0.00,,---,0.00,VWS V14.00,2013-09-24 20:05:00,
2013-09-24 14:10:00,66.4,40.7,29.68,SE,137,8.0,15.0,39,0.00,,---,0.00,VWS V14.00,2013-09-24 20:10:00,
2013-09-24 14:15:00,66.3,40.0,29.68,South,174,0.0,7.0,38,0.00,,---,0.00,VWS V14.00,2013-09-24 20:15:00,
2013-09-24 14:20:00,66.5,41.5,29.68,SSE,168,6.0,9.0,40,0.00,,---,0.00,VWS V14.00,2013-09-24 20:20:00,
2013-09-24 14:25:00,67.0,40.6,29.67,SE,129,7.0,9.0,38,0.00,,---,0.00,VWS V14.00,2013-09-24 20:25:00,
2013-09-24 14:30:00,67.3,38.7,29.67,SSE,158,7.0,11.0,35,0.00,,---,0.00,VWS V14.00,2013-09-24 20:30:00,
2013-09-24 14:36:00,67.7,38.3,29.67,SE,140,11.0,13.0,34,0.00,,---,0.00,VWS V14.00,2013-09-24 20:36:00,
2013-09-24 14:41:00,67.7,39.1,29.67,SE,144,2.0,13.0,35,0.00,,---,0.00,VWS V14.00,2013-09-24 20:41:00,
2013-09-24 14:46:00,67.7,39.8,29.67,South,182,0.0,0.0,36,0.00,,---,0.00,VWS V14.00,2013-09-24 20:46:00,
2013-09-24 14:51:00,67.9,40.0,29.66,SSE,153,8.0,9.0,36,0.00,,---,0.00,VWS V14.00,2013-09-24 20:51:00,
2013-09-24 14:56:00,68.2,39.5,29.66,SSE,158,6.0,10.0,35,0.00,,---,0.00,VWS V14.00,2013-09-24 20:56:00,
2013-09-24 15:01:00,68.3,41.0,29.66,South,187,9.0,10.0,37,0.00,,---,0.00,VWS V14.00,2013-09-24 21:01:00,
2013-09-24 15:06:00,68.5,39.8,29.66,SE,125,0.0,8.0,35,0.00,,---,0.00,VWS V14.00,2013-09-24 21:06:00,
2013-09-24 15:12:00,68.9,41.6,29.66,SSW,195,0.0,12.0,37,0.00,,---,0.00,VWS V14.00,2013-09-24 21:12:00,
2013-09-24 15:17:00,69.0,41.0,29.65,SSE,161,5.0,12.0,36,0.00,,---,0.00,VWS V14.00,2013-09-24 21:17:00,
2013-09-24 15:22:00,69.4,39.8,29.65,SSE,153,0.0,13.0,34,0.00,,---,0.00,VWS V14.00,2013-09-24 21:22:00,
2013-09-24 15:27:00,69.6,37.7,29.64,SSE,161,8.0,9.0,31,0.00,,---,0.00,VWS V14.00,2013-09-24 21:27:00,
2013-09-24 15:32:00,69.7,37.7,29.64,South,176,9.0,12.0,31,0.00,,---,0.00,VWS V14.00,2013-09-24 21:32:00,
2013-09-24 15:37:00,69.6,37.7,29.64,SSE,167,7.0,10.0,31,0.00,,---,0.00,VWS V14.00,2013-09-24 21:37:00,
2013-09-24 15:42:00,69.7,37.7,29.64,SE,128,8.0,10.0,31,0.00,,---,0.00,VWS V14.00,2013-09-24 21:42:00,
2013-09-24 15:47:00,69.7,37.7,29.64,South,182,6.0,8.0,31,0.00,,---,0.00,VWS V14.00,2013-09-24 21:47:00,
2013-09-24 15:52:00,69.8,37.0,29.64,SSE,148,0.0,11.0,30,0.00,,---,0.00,VWS V14.00,2013-09-24 21:52:00,
2013-09-24 15:57:00,69.9,37.1,29.63,SSW,200,6.0,11.0,30,0.00,,---,0.00,VWS V14.00,2013-09-24 21:57:00,
2013-09-24 16:02:00,69.9,37.1,29.63,SSE,159,6.0,11.0,30,0.00,,---,0.00,VWS V14.00,2013-09-24 22:02:00,
2013-09-24 16:07:00,70.3,37.4,29.62,South,173,7.0,9.0,30,0.00,,---,0.00,VWS V14.00,2013-09-24 22:07:00,
2013-09-24 16:12:00,70.2,35.6,29.63,South,186,5.0,11.0,28,0.00,,---,0.00,VWS V14.00,2013-09-24 22:12:00,
2013-09-24 16:17:00,70.2,36.5,29.62,SSW,194,5.0,8.0,29,0.00,,---,0.00,VWS V14.00,2013-09-24 22:17:00,
2013-09-24 16:22:00,70.4,36.7,29.62,South,171,6.0,9.0,29,0.00,,---,0.00,VWS V14.00,2013-09-24 22:22:00,
2013-09-24 16:28:00,70.4,36.7,29.62,SE,144,6.0,8.0,29,0.00,,---,0.00,VWS V14.00,2013-09-24 22:28:00,
2013-09-24 16:33:00,70.4,37.5,29.62,South,170,6.0,9.0,30,0.00,,---,0.00,VWS V14.00,2013-09-24 22:33:00,
2013-09-24 16:38:00,70.2,35.6,29.61,SSW,207,0.0,7.0,28,0.00,,---,0.00,VWS V14.00,2013-09-24 22:38:00,
2013-09-24 16:43:00,70.3,36.6,29.62,SSW,209,0.0,7.0,29,0.00,,---,0.00,VWS V14.00,2013-09-24 22:43:00,
2013-09-24 16:48:00,70.3,36.6,29.61,SSW,198,6.0,8.0,29,0.00,,---,0.00,VWS V14.00,2013-09-24 22:48:00,
2013-09-24 16:53:00,69.7,36.9,29.61,SSW,201,0.0,8.0,30,0.00,,---,0.00,VWS V14.00,2013-09-24 22:53:00,
2013-09-24 16:58:00,69.1,36.4,29.61,South,182,2.0,8.0,30,0.00,,---,0.00,VWS V14.00,2013-09-24 22:58:00,
2013-09-24 17:03:00,68.5,36.7,29.61,SSW,193,5.0,8.0,31,0.00,,---,0.00,VWS V14.00,2013-09-24 23:03:00,
2013-09-24 17:08:00,68.2,35.6,29.61,South,188,3.0,7.0,30,0.00,,---,0.00,VWS V14.00,2013-09-24 23:08:00,
2013-09-24 17:14:00,68.1,35.5,29.60,SSW,212,0.0,7.0,30,0.00,,---,0.00,VWS V14.00,2013-09-24 23:14:00,
2013-09-24 17:19:00,68.1,37.2,29.60,South,182,0.0,8.0,32,0.00,,---,0.00,VWS V14.00,2013-09-24 23:19:00,
2013-09-24 17:24:00,67.9,36.2,29.60,South,182,2.0,8.0,31,0.00,,---,0.00,VWS V14.00,2013-09-24 23:24:00,
2013-09-24 17:29:00,67.9,36.2,29.60,SSW,198,5.0,6.0,31,0.00,,---,0.00,VWS V14.00,2013-09-24 23:29:00,
2013-09-24 17:34:00,67.9,36.2,29.59,SSW,199,4.0,6.0,31,0.00,,---,0.00,VWS V14.00,2013-09-24 23:34:00,
2013-09-24 17:39:00,67.7,36.8,29.60,SSW,198,0.0,5.0,32,0.00,,---,0.00,VWS V14.00,2013-09-24 23:39:00,
2013-09-24 17:44:00,67.7,35.2,29.59,SSW,198,0.0,5.0,30,0.00,,---,0.00,VWS V14.00,2013-09-24 23:44:00,
2013-09-24 17:49:00,68.0,36.3,29.59,SSW,200,0.0,0.0,31,0.00,,---,0.00,VWS V14.00,2013-09-24 23:49:00,
2013-09-24 17:54:00,68.2,36.4,29.59,SW,231,0.0,3.0,31,0.00,,---,0.00,VWS V14.00,2013-09-24 23:54:00,
2013-09-24 17:59:00,68.2,36.4,29.59,SW,231,0.0,0.0,31,0.00,,---,0.00,VWS V14.00,2013-09-24 23:59:00,
2013-09-24 18:04:00,68.2,36.4,29.59,SW,230,0.0,0.0,31,0.00,,---,0.00,VWS V14.00,2013-09-25 00:04:00,
2013-09-24 18:09:00,68.0,37.8,29.58,SW,230,0.0,0.0,33,0.00,,---,0.00,VWS V14.00,2013-09-25 00:09:00,
2013-09-24 18:14:00,67.8,37.7,29.58,SW,230,0.0,0.0,33,0.00,,---,0.00,VWS V14.00,2013-09-25 00:14:00,
2013-09-24 18:20:00,67.9,37.0,29.58,SW,230,0.0,0.0,32,0.00,,---,0.00,VWS V14.00,2013-09-25 00:20:00,
2013-09-24 18:25:00,67.9,36.2,29.58,SW,234,2.0,3.0,31,0.00,,---,0.00,VWS V14.00,2013-09-25 00:25:00,
2013-09-24 18:30:00,67.7,38.3,29.58,SW,234,0.0,3.0,34,0.00,,---,0.00,VWS V14.00,2013-09-25 00:30:00,
2013-09-24 18:35:00,67.4,37.3,29.58,SW,236,3.0,3.0,33,0.00,,---,0.00,VWS V14.00,2013-09-25 00:35:00,
2013-09-24 18:40:00,66.9,37.7,29.57,WSW,239,0.0,4.0,34,0.00,,---,0.00,VWS V14.00,2013-09-25 00:40:00,
2013-09-24 18:45:00,66.8,36.0,29.57,WSW,246,0.0,0.0,32,0.00,,---,0.00,VWS V14.00,2013-09-25 00:45:00,
2013-09-24 18:50:00,66.8,36.8,29.57,WSW,252,3.0,3.0,33,0.00,,---,0.00,VWS V14.00,2013-09-25 00:50:00,
2013-09-24 18:55:00,66.7,35.9,29.56,WSW,253,0.0,0.0,32,0.00,,---,0.00,VWS V14.00,2013-09-25 00:55:00,
2013-09-24 19:00:00,66.6,37.4,29.56,WSW,254,0.0,3.0,34,0.00,,---,0.00,VWS V14.00,2013-09-25 01:00:00,
2013-09-24 19:05:00,66.4,37.2,29.56,WSW,254,0.0,1.0,34,0.00,,---,0.00,VWS V14.00,2013-09-25 01:05:00,
2013-09-24 19:10:00,65.8,37.4,29.56,West,269,5.0,5.0,35,0.00,,---,0.00,VWS V14.00,2013-09-25 01:10:00,
2013-09-24 19:15:00,65.3,36.2,29.56,WNW,282,0.0,3.0,34,0.00,,---,0.00,VWS V14.00,2013-09-25 01:15:00,
2013-09-24 19:21:00,65.1,35.3,29.56,West,281,0.0,4.0,33,0.00,,---,0.00,VWS V14.00,2013-09-25 01:21:00,
2013-09-24 19:26:00,65.5,35.7,29.56,WNW,284,3.0,4.0,33,0.00,,---,0.00,VWS V14.00,2013-09-25 01:26:00,
2013-09-24 19:31:00,65.9,36.0,29.56,WNW,284,5.0,5.0,33,0.00,,---,0.00,VWS V14.00,2013-09-25 01:31:00,
2013-09-24 19:36:00,65.4,36.3,29.56,West,280,5.0,6.0,34,0.00,,---,0.00,VWS V14.00,2013-09-25 01:36:00,
2013-09-24 19:41:00,65.2,36.2,29.56,West,280,4.0,6.0,34,0.00,,---,0.00,VWS V14.00,2013-09-25 01:41:00,
2013-09-24 19:46:00,65.2,35.4,29.56,West,280,4.0,5.0,33,0.00,,---,0.00,VWS V14.00,2013-09-25 01:46:00,
2013-09-24 19:51:00,65.5,35.7,29.56,West,274,4.0,5.0,33,0.00,,---,0.00,VWS V14.00,2013-09-25 01:51:00,
2013-09-24 19:56:00,65.4,36.3,29.55,West,274,3.0,4.0,34,0.00,,---,0.00,VWS V14.00,2013-09-25 01:56:00,
2013-09-24 20:01:00,64.7,36.4,29.55,West,273,3.0,4.0,35,0.00,,---,0.00,VWS V14.00,2013-09-25 02:01:00,
2013-09-24 20:06:00,64.9,35.1,29.55,West,269,4.0,5.0,33,0.00,,---,0.00,VWS V14.00,2013-09-25 02:06:00,
2013-09-24 20:11:00,64.9,35.9,29.55,West,269,4.0,5.0,34,0.00,,---,0.00,VWS V14.00,2013-09-25 02:11:00,
2013-09-24 20:16:00,64.6,35.6,29.55,West,269,4.0,4.0,34,0.00,,---,0.00,VWS V14.00,2013-09-25 02:16:00,
2013-09-24 20:21:00,64.2,36.0,29.55,West,269,3.0,4.0,35,0.00,,---,0.00,VWS V14.00,2013-09-25 02:21:00,
2013-09-24 20:26:00,63.7,37.0,29.55,West,269,0.0,4.0,37,0.00,,---,0.00,VWS V14.00,2013-09-25 02:26:00,
2013-09-24 20:31:00,62.7,36.8,29.55,West,269,0.0,4.0,38,0.00,,---,0.00,VWS V14.00,2013-09-25 02:31:00,
2013-09-24 20:37:00,62.1,36.9,29.55,West,271,0.0,1.0,39,0.00,,---,0.00,VWS V14.00,2013-09-25 02:37:00,
2013-09-24 20:42:00,62.7,36.1,29.55,West,271,3.0,3.0,37,0.00,,---,0.00,VWS V14.00,2013-09-25 02:42:00,
2013-09-24 20:47:00,63.3,36.6,29.55,West,267,3.0,3.0,37,0.00,,---,0.00,VWS V14.00,2013-09-25 02:47:00,
2013-09-24 20:52:00,63.0,37.0,29.54,West,267,3.0,4.0,38,0.00,,---,0.00,VWS V14.00,2013-09-25 02:52:00,
2013-09-24 20:57:00,62.7,36.8,29.54,West,267,0.0,2.0,38,0.00,,---,0.00,VWS V14.00,2013-09-25 02:57:00,
2013-09-24 21:02:00,62.0,36.8,29.54,West,278,0.0,2.0,39,0.00,,---,0.00,VWS V14.00,2013-09-25 03:02:00,
2013-09-24 21:07:00,61.1,38.5,29.54,WNW,285,0.0,0.0,43,0.00,,---,0.00,VWS V14.00,2013-09-25 03:07:00,
2013-09-24 21:12:00,60.3,36.5,29.54,WNW,286,0.0,0.0,41,0.00,,---,0.00,VWS V14.00,2013-09-25 03:12:00,
2013-09-24 21:17:00,60.5,36.1,29.54,WNW,286,0.0,0.0,40,0.00,,---,0.00,VWS V14.00,2013-09-25 03:17:00,
2013-09-24 21:22:00,60.4,37.8,29.54,WNW,286,0.0,0.0,43,0.00,,---,0.00,VWS V14.00,2013-09-25 03:22:00,
2013-09-24 21:27:00,60.3,35.3,29.54,WNW,286,0.0,0.0,39,0.00,,---,0.00,VWS V14.00,2013-09-25 03:27:00,
2013-09-24 21:32:00,61.9,35.4,29.53,WNW,286,0.0,0.0,37,0.00,,---,0.00,VWS V14.00,2013-09-25 03:32:00,
2013-09-24 21:38:00,62.2,38.2,29.54,WNW,300,0.0,1.0,41,0.00,,---,0.00,VWS V14.00,2013-09-25 03:38:00,
2013-09-24 21:43:00,60.8,36.3,29.53,WNW,300,0.0,1.0,40,0.00,,---,0.00,VWS V14.00,2013-09-25 03:43:00,
2013-09-24 21:48:00,60.4,37.2,29.53,WNW,300,0.0,0.0,42,0.00,,---,0.00,VWS V14.00,2013-09-25 03:48:00,
2013-09-24 21:53:00,60.4,37.8,29.53,NW,308,0.0,3.0,43,0.00,,---,0.00,VWS V14.00,2013-09-25 03:53:00,
2013-09-24 21:58:00,59.8,37.9,29.53,NW,309,0.0,0.0,44,0.00,,---,0.00,VWS V14.00,2013-09-25 03:58:00,
2013-09-24 22:01:00,59.1,37.8,29.53,NW,309,0.0,0.0,45,0.00,,---,0.00,VWS V14.00,2013-09-25 04:01:00,
2013-09-24 22:02:00,58.9,37.6,29.53,NW,308,0.0,0.0,45,0.00,,---,0.00,VWS V14.00,2013-09-25 04:02:00,
2013-09-24 22:04:00,58.6,37.9,29.53,NW,308,0.0,0.0,46,0.00,,---,0.00,VWS V14.00,2013-09-25 04:04:00,
2013-09-24 22:06:00,58.5,37.8,29.53,WNW,299,4.0,5.0,46,0.00,,---,0.00,VWS V14.00,2013-09-25 04:06:00,
2013-09-24 22:11:00,59.6,37.1,29.53,NW,319,4.0,6.0,43,0.00,,---,0.00,VWS V14.00,2013-09-25 04:11:00,
2013-09-24 22:16:00,60.3,38.3,29.52,NW,319,0.0,2.0,44,0.00,,---,0.00,VWS V14.00,2013-09-25 04:16:00,
2013-09-24 22:22:00,60.4,36.6,29.52,NW,319,0.0,2.0,41,0.00,,---,0.00,VWS V14.00,2013-09-25 04:22:00,
2013-09-24 22:27:00,60.8,37.0,29.52,NW,319,0.0,0.0,41,0.00,,---,0.00,VWS V14.00,2013-09-25 04:27:00,
2013-09-24 22:32:00,60.4,37.2,29.52,NW,319,0.0,0.0,42,0.00,,---,0.00,VWS V14.00,2013-09-25 04:32:00,
2013-09-24 22:37:00,60.6,36.8,29.52,West,264,0.0,2.0,41,0.00,,---,0.00,VWS V14.00,2013-09-25 04:37:00,
2013-09-24 22:42:00,60.4,37.2,29.52,West,271,0.0,4.0,42,0.00,,---,0.00,VWS V14.00,2013-09-25 04:42:00,
2013-09-24 22:47:00,59.8,36.7,29.51,West,271,0.0,0.0,42,0.00,,---,0.00,VWS V14.00,2013-09-25 04:47:00,
2013-09-24 22:52:00,59.5,37.0,29.51,West,271,0.0,0.0,43,0.00,,---,0.00,VWS V14.00,2013-09-25 04:52:00,
2013-09-24 22:57:00,58.9,38.7,29.51,WNW,290,0.0,6.0,47,0.00,,---,0.00,VWS V14.00,2013-09-25 04:57:00,
2013-09-24 23:02:00,58.6,37.9,29.51,North,5,0.0,6.0,46,0.00,,---,0.00,VWS V14.00,2013-09-25 05:02:00,
2013-09-24 23:08:00,57.4,37.9,29.51,North,5,0.0,0.0,48,0.00,,---,0.00,VWS V14.00,2013-09-25 05:08:00,
2013-09-24 23:13:00,56.7,38.3,29.51,NNE,13,0.0,3.0,50,0.00,,---,0.00,VWS V14.00,2013-09-25 05:13:00,
2013-09-24 23:18:00,55.8,37.5,29.51,NNE,13,0.0,0.0,50,0.00,,---,0.00,VWS V14.00,2013-09-25 05:18:00,
2013-09-24 23:23:00,54.3,37.5,29.51,NNW,340,0.0,5.0,53,0.00,,---,0.00,VWS V14.00,2013-09-25 05:23:00,
2013-09-24 23:28:00,54.6,36.8,29.51,North,355,2.0,6.0,51,0.00,,---,0.00,VWS V14.00,2013-09-25 05:28:00,
2013-09-24 23:33:00,54.8,37.5,29.51,NNW,344,6.0,7.0,52,0.00,,---,0.00,VWS V14.00,2013-09-25 05:33:00,
2013-09-24 23:38:00,56.1,37.7,29.50,NNW,333,5.0,8.0,50,0.00,,---,0.00,VWS V14.00,2013-09-25 05:38:00,
2013-09-24 23:44:00,56.8,38.9,29.50,NNW,342,5.0,8.0,51,0.00,,---,0.00,VWS V14.00,2013-09-25 05:44:00,
2013-09-24 23:49:00,57.3,39.3,29.50,NNW,329,3.0,7.0,51,0.00,,---,0.00,VWS V14.00,2013-09-25 05:49:00,
2013-09-24 23:54:00,57.3,38.8,29.50,NNW,344,0.0,7.0,50,0.00,,---,0.00,VWS V14.00,2013-09-25 05:54:00,
2013-09-24 23:59:00,56.9,38.5,29.50,NNW,339,0.0,4.0,50,0.00,,---,0.00,VWS V14.00,2013-09-25 05:59:00,